Packwood, WA

12:46 AM PDT on July 04, 2015 (GMT -0700)
APRSWXNET | | Change Station
CLOSE
Current Station
Personal Weather Station
Location: Packwood, WA
Elevation: 1290 ft
Nearby Weather Stations
Active Advisory: Special Statement Active Notice: Record Report

Elev 1290 ft 46.61 °N, 121.66 °W | Updated 16 minutes ago

Clear
Clear
76 °F
Feels Like 78 °F
N
0
Wind Variable Wind from East
Gusts 3.0 mph

Today
High -- | Low -- °F
--% Chance of Precip.
Yesterday
High -- | Low -- °F
Precip. -- in
5:18 AM 9:02 PM
Waning Gibbous, 94% visible
Pressure 29.90 in
Visibility 10.0 miles
Clouds Clear
Heat Index 78 °F
Dew Point 61 °F
Humidity 59%
Rainfall in
Snow Depth Not available.
UV 0 out of 12
Pollen 8.40 out of 12
Air Quality Not available.
Flu Activity Not available.
METAR KPLU 040735Z AUTO 00000KT 10SM CLR 19/13 A2990 RMK AO2

More Conditions Fewer Conditions

Pressure 29.90 in
Visibility 10.0 miles
Clouds Clear
Heat Index 78 °F
Dew Point 61 °F
Humidity 59%
Rainfall in
Snow Depth Not available.
UV 0 out of 12
Pollen 8.40 out of 12
Air Quality Not available.
Flu Activity Not available.
METAR KPLU 040735Z AUTO 00000KT 10SM CLR 19/13 A2990 RMK AO2

More Conditions Fewer Conditions

10-Day Weather Forecast

×

Almanac

Astronomy

Jul. 04, 2015 Rise Set
Actual Time
Civil Twilight
Nautical Twilight
Astronomical Twilight
Moon
Length of Visible Light
Length of Day
Tomorrow will be .
, % of the Moon is Illuminated

Today's Extremes

State Highs State Lows

Community

WunderPhotos

Upload Photos

1,834,930 photos uploaded!

WunderBlogs® & News

Nearby

Air Quality

  Air Quality AQ Index Pollutant
Not available.

Snow Depth

Station Depth Elevation

Earthquake Activity

City Distance Mag. Time & Date
Minimum magnitude displayed is 2.5.

Coastal Water Temperatures

Place Temperature

Stations

Nearby Weather Stations

Station Location Temp. Windchill Dew Point Humidity Wind Precip. Elev Updated Type
                   
Special Statement
Statement as of 2:38 PM PDT on July 03, 2015

... Hot weather for the Holiday weekend for western Washington... .

High temperatures will continue to be well above normal through
the weekend. On Saturday temperatures will again be in the 80s and
lower 90s for much of the area... with the coast in the 70s. On
Sunday the coast will warm well into the 80s and inland areas
could reach the mid 90s.

The recent warm dry weather has lead areas of tall grass drying
out early this Summer. Fireworks are banned in a number of
communities and for the most part campfires are banned as well.

Cooler cloudier weather may develop toward the end of next week.


Www.Weather.Gov/Seattle